EGAA

Belfast International Airport

Airport
ICAO code
EGAA
IATA Code
BFS
Summary
ICAO Region
EUR
ICAO Territory
Location

Belfast, Aldergrove, Northern Ireland

Serving
Belfast
Elevation
268 ft
Coordinates
54° 39' 15" N , 6° 13' 5" W
KCC
Cfb
Metar
Observation
EGAA 152150Z AUTO 35010KT 9999 OVC005 14/13 Q1008
Station
Belfast / Aldergrove Airport
Date/Time
2022-08-15 21:50:00
Wind direction
350°
Wind speed
10 kts
Lowest cloud amount
overcast
Temperature
14°C
Dew point
13°C
Humidity
93%
QNH
1008 hPa
Weather condition
n/a

Description

International airport serving Northern Ireland.

Formerly (until January 1983) known as Belfast Aldergrove Airport. Originally it was an RAF Station but when the nearby Belfast Nutts Corner civil Airport closed in 1963, it became a joint use one until the RAF withdrew in 2009 and the remaining military presence was transferred to the UK Joint Helicopter Command.

Climatology

Temperate Marine climate/Oceanic climate (Köppen climate classification Cfb). Moderately cool summer and comparatively warm winter with a temperature range of only 14°C. Prevailing south-westerly winds from the Atlantic Ocean.

Runways

Designator Length Width Surface Rops
17/35 1951 45 ASP Yes/Yes
7/25 2780 45 ASP Yes/Yes

SKYbrary Partners:

Safety knowledge contributed by: